KBTM/BTM METAR and TAF weather

Enter ICAO airport designator
Station Type Date Time Source
KBTM METAR 2020/07/14 20:53 UTC NOAA

KBTM 142053Z AUTO 31011KT 10SM CLR 21/M04 A3016 RMK AO2 SLP178 T02111044 58010


Station Type Date Time Source
KBTM Decoded METAR 2020/07/14 20:53 UTC NOAA

BERT MOONEY AIRPORT, MT, United States (KBTM) 45-58N 112-30W 1688M
Jul 14, 2020 - 04:53 PM EDT / 2020.07.14 2053 UTC
Wind: from the NW (310 degrees) at 13 MPH (11 KT):0
Visibility: 10 mile(s):0
Sky conditions: clear
Temperature: 70.0 F (21.1 C)
Dew Point: 24.1 F (-4.4 C)
Relative Humidity: 17%
Pressure (altimeter): 30.16 in. Hg (1021 hPa)
Pressure tendency: 0.03 inches (1.0 hPa) lower than three hours ago
ob: KBTM 142053Z AUTO 31011KT 10SM CLR 21/M04 A3016 RMK AO2 SLP178 T02111044 58010
cycle: 21

Station Type Date Time Source
KBTM TAF 2020/07/14 18:24 UTC NOAA

TAF KBTM 141723Z 1418/1518 VRB04KT P6SM SKC
FM142100 31009KT P6SM SKC
FM150300 15006KT P6SM SKC

Example: see airport list